This is the latest recevied weather packets stored in our database for station/object OE3AOG-10. If no packets are shown the sender has not sent any weather packets the latest 10 day(s).
| Time | Temp. | Humidity | Pressure | Rain* | Wind** | Luminosity | Snow |
|---|---|---|---|---|---|---|---|
| 1777704863 | 18.33° C | 46% | 1026.3 hPa | - | - | - | - |
| 1777701262 | 14.44° C | 52% | 1026.3 hPa | - | - | - | - |
| 1777697661 | 10.56° C | 54% | 1026.4 hPa | - | - | - | - |
| 1777694061 | 10° C | 52% | 1026.1 hPa | - | - | - | - |
| 1777690461 | 11.11° C | 50% | 1025.9 hPa | - | - | - | - |
| 1777686861 | 11.11° C | 50% | 1026.1 hPa | - | - | - | - |
| 1777683261 | 11.67° C | 48% | 1026.4 hPa | - | - | - | - |
| 1777679661 | 12.22° C | 47% | 1026.6 hPa | - | - | - | - |
| 1777676060 | 12.22° C | 46% | 1026.7 hPa | - | - | - | - |
| 1777672460 | 12.78° C | 45% | 1026.8 hPa | - | - | - | - |
| 1777668861 | 13.89° C | 43% | 1026.7 hPa | - | - | - | - |
| 1777665261 | 14.44° C | 41% | 1026.6 hPa | - | - | - | - |
| 1777661661 | 15.56° C | 38% | 1026.5 hPa | - | - | - | - |
| 1777658060 | 17.22° C | 34% | 1026.2 hPa | - | - | - | - |
| 1777654460 | 19.44° C | 32% | 1026.2 hPa | - | - | - | - |
| 1777650859 | 19.44° C | 31% | 1026.6 hPa | - | - | - | - |
| 1777647260 | 21.11° C | 29% | 1027 hPa | - | - | - | - |
| 1777643659 | 21.11° C | 28% | 1027.6 hPa | - | - | - | - |
| 1777640059 | 22.22° C | 28% | 1028.1 hPa | - | - | - | - |
| 1777636459 | 22.78° C | 28% | 1028.7 hPa | - | - | - | - |
| 1777632859 | 22.22° C | 29% | 1029.4 hPa | - | - | - | - |
| 1777629258 | 18.89° C | 31% | 1029.8 hPa | - | - | - | - |
| 1777625661 | 17.78° C | 33% | 1030 hPa | - | - | - | - |
| 1777622060 | 17.22° C | 35% | 1029.9 hPa | - | - | - | - |
| 1777618460 | 13.89° C | 38% | 1029.9 hPa | - | - | - | - |
* Rain since midnight (hover to see other rain measurements)
** Current wind speed in m/s (hover to see current wind gust speed)